createdAt,value
2018-09-18T00:01:01.957Z,6.53
2018-09-18T00:03:31.250Z,7.20
2018-09-18T00:06:00.587Z,7.20
2018-09-18T00:08:29.989Z,8.67
2018-09-18T00:10:59.547Z,7.40
2018-09-18T00:13:28.851Z,8.03
2018-09-18T00:15:58.202Z,7.90
2018-09-18T00:18:28.495Z,7.63
2018-09-18T00:20:57.971Z,7.43
2018-09-18T00:23:27.557Z,7.83
2018-09-18T00:25:56.862Z,6.93
2018-09-18T00:28:26.155Z,7.73
2018-09-18T00:30:55.443Z,7.33
2018-09-18T00:33:24.988Z,7.63
2018-09-18T00:35:54.386Z,7.60
2018-09-18T00:38:23.682Z,7.47
2018-09-18T00:40:52.986Z,7.70
2018-09-18T00:43:22.363Z,7.70
2018-09-18T00:45:51.618Z,7.30
2018-09-18T00:48:21.023Z,8.50
2018-09-18T00:50:50.386Z,8.70
2018-09-18T00:53:19.675Z,8.77
2018-09-18T00:55:49.322Z,7.53
2018-09-18T00:58:18.615Z,7.63
2018-09-18T01:00:48.176Z,7.40
2018-09-18T01:03:17.513Z,7.70
2018-09-18T01:05:46.825Z,8.13
2018-09-18T01:08:16.287Z,8.73
2018-09-18T01:10:45.607Z,8.90
2018-09-18T01:13:15.053Z,7.77
2018-09-18T01:15:44.313Z,8.10
2018-09-18T01:18:13.723Z,8.07
2018-09-18T01:20:43.195Z,9.50
2018-09-18T01:23:12.459Z,9.33
2018-09-18T01:25:41.804Z,8.60
2018-09-18T01:28:11.090Z,8.43
2018-09-18T01:30:40.397Z,9.40
2018-09-18T01:33:09.862Z,8.93
2018-09-18T01:35:39.199Z,9.07
2018-09-18T01:38:08.597Z,8.53
2018-09-18T01:40:38.099Z,8.17
2018-09-18T01:43:07.486Z,9.67
2018-09-18T01:45:36.838Z,8.60
2018-09-18T01:48:06.416Z,10.67
2018-09-18T01:50:35.888Z,8.47
2018-09-18T01:53:05.282Z,9.20
2018-09-18T01:55:34.696Z,8.47
2018-09-18T01:58:04.006Z,8.70
2018-09-18T02:00:33.418Z,8.67
2018-09-18T02:03:03.056Z,8.80
2018-09-18T02:05:33.064Z,9.00
2018-09-18T02:08:02.615Z,8.77
2018-09-18T02:10:32.228Z,9.13
2018-09-18T02:13:02.163Z,8.80
2018-09-18T02:15:31.686Z,9.00
2018-09-18T02:18:01.293Z,10.07
2018-09-18T02:20:31.071Z,8.97
2018-09-18T02:23:00.781Z,9.07
2018-09-18T02:25:30.666Z,8.50
2018-09-18T02:28:00.275Z,8.63
2018-09-18T02:30:30.115Z,9.40
2018-09-18T02:32:59.798Z,9.67
2018-09-18T02:35:29.406Z,8.50
2018-09-18T02:37:59.254Z,8.80
2018-09-18T02:40:28.791Z,8.07
2018-09-18T02:42:58.331Z,9.40
2018-09-18T02:45:28.059Z,8.43
2018-09-18T02:47:57.948Z,9.17
2018-09-18T02:50:27.502Z,9.27
2018-09-18T02:52:57.087Z,8.43
2018-09-18T02:55:26.629Z,10.00
2018-09-18T02:57:56.119Z,9.30
2018-09-18T03:00:25.647Z,9.20
2018-09-18T03:02:55.531Z,10.30
2018-09-18T03:05:25.139Z,8.90
2018-09-18T03:07:54.908Z,9.80
2018-09-18T03:10:25.116Z,8.90
2018-09-18T03:12:54.896Z,9.53
2018-09-18T03:15:24.879Z,9.67
2018-09-18T03:17:54.437Z,9.43
2018-09-18T03:20:24.035Z,9.77
2018-09-18T03:22:53.681Z,9.90
2018-09-18T03:25:23.186Z,9.23
2018-09-18T03:27:52.675Z,9.00
2018-09-18T03:30:22.287Z,9.90
2018-09-18T03:32:52.149Z,9.83
2018-09-18T03:35:21.834Z,10.30
2018-09-18T03:37:51.348Z,9.80
2018-09-18T03:40:20.703Z,9.73
2018-09-18T03:42:50.319Z,9.63
2018-09-18T03:45:20.021Z,9.97
2018-09-18T03:47:49.424Z,10.00
2018-09-18T03:50:18.810Z,9.07
2018-09-18T03:52:48.267Z,9.00
2018-09-18T03:55:17.838Z,9.30
2018-09-18T03:57:47.250Z,9.97
2018-09-18T04:00:17.106Z,9.80
2018-09-18T04:02:46.601Z,9.50
2018-09-18T04:05:15.898Z,10.20
2018-09-18T04:07:45.324Z,10.67
2018-09-18T04:10:14.770Z,9.77
2018-09-18T04:12:44.170Z,9.90
2018-09-18T04:15:13.566Z,9.80
2018-09-18T04:17:43.827Z,10.10
2018-09-18T04:20:13.396Z,10.67
2018-09-18T04:22:42.818Z,10.10
2018-09-18T04:25:12.165Z,9.63
2018-09-18T04:27:41.455Z,9.57
2018-09-18T04:30:10.792Z,10.07
2018-09-18T04:32:40.155Z,10.07
2018-09-18T04:35:09.462Z,9.80
2018-09-18T04:37:38.809Z,9.20
2018-09-18T04:40:09.364Z,9.83
2018-09-18T04:42:38.737Z,8.87
2018-09-18T04:45:08.078Z,8.33
2018-09-18T04:47:37.505Z,10.33
2018-09-18T04:50:06.911Z,9.60
2018-09-18T04:52:36.456Z,9.70
2018-09-18T04:55:06.158Z,9.47
2018-09-18T04:57:35.497Z,8.60
2018-09-18T05:00:05.644Z,9.80
2018-09-18T05:02:35.420Z,8.57
2018-09-18T05:05:05.362Z,9.50
2018-09-18T05:07:34.732Z,8.77
2018-09-18T05:10:04.293Z,8.87
2018-09-18T05:12:33.635Z,8.40
2018-09-18T05:15:03.139Z,8.73
2018-09-18T05:17:33.027Z,9.20
2018-09-18T05:20:02.773Z,8.37
2018-09-18T05:22:32.188Z,8.97
2018-09-18T05:25:01.730Z,9.17
2018-09-18T05:27:30.995Z,9.53
2018-09-18T05:30:00.386Z,9.73
2018-09-18T05:32:29.703Z,10.63
2018-09-18T05:34:59.440Z,9.13
2018-09-18T05:37:28.798Z,8.97
2018-09-18T05:39:58.483Z,9.30
2018-09-18T05:42:27.855Z,9.10
2018-09-18T05:44:57.231Z,9.13
2018-09-18T05:47:26.862Z,9.80
2018-09-18T05:49:56.253Z,9.17
2018-09-18T05:52:25.652Z,8.73
2018-09-18T05:54:55.062Z,9.37
2018-09-18T05:57:24.465Z,8.63
2018-09-18T05:59:54.261Z,9.50
2018-09-18T06:02:23.757Z,8.90
2018-09-18T06:04:53.039Z,8.77
2018-09-18T06:07:22.532Z,8.20
2018-09-18T06:09:52.384Z,8.80
2018-09-18T06:12:21.745Z,8.60
2018-09-18T06:14:51.067Z,8.40
2018-09-18T06:17:20.506Z,8.60
2018-09-18T06:19:49.943Z,9.00
2018-09-18T06:22:19.410Z,9.63
2018-09-18T06:24:48.850Z,8.80
2018-09-18T06:27:18.291Z,9.03
2018-09-18T06:29:47.713Z,8.30
2018-09-18T06:32:17.276Z,8.47
2018-09-18T06:34:46.669Z,8.30
2018-09-18T06:37:16.171Z,14.27
2018-09-18T06:39:45.586Z,7.70
2018-09-18T06:42:14.927Z,8.00
2018-09-18T06:44:44.669Z,7.87
2018-09-18T06:47:14.032Z,7.40
2018-09-18T06:49:43.762Z,7.90
2018-09-18T06:52:13.101Z,7.63
2018-09-18T06:54:42.867Z,7.50
2018-09-18T06:57:12.237Z,8.07
2018-09-18T06:59:41.636Z,7.73
2018-09-18T07:02:11.448Z,7.23
2018-09-18T07:04:40.865Z,7.80
2018-09-18T07:07:10.282Z,7.80
2018-09-18T07:09:39.645Z,7.43
2018-09-18T07:12:09.110Z,7.33
2018-09-18T07:14:38.489Z,7.17
2018-09-18T07:17:08.617Z,6.73
2018-09-18T07:19:38.455Z,6.93
2018-09-18T07:22:07.935Z,6.70
2018-09-18T07:24:37.438Z,6.80
2018-09-18T07:27:06.836Z,7.40
2018-09-18T07:29:36.350Z,6.00
2018-09-18T07:32:05.747Z,6.47
2018-09-18T07:34:35.148Z,6.60
2018-09-18T07:37:04.631Z,6.40
2018-09-18T07:39:34.508Z,6.23
2018-09-18T07:42:04.077Z,6.37
2018-09-18T07:44:33.475Z,5.30
2018-09-18T07:47:02.952Z,6.70
2018-09-18T07:49:32.337Z,6.30
2018-09-18T07:52:01.757Z,6.10
2018-09-18T07:54:31.119Z,5.90
2018-09-18T07:57:00.513Z,5.30
2018-09-18T07:59:29.879Z,5.67
2018-09-18T08:01:59.662Z,5.23
2018-09-18T08:04:29.048Z,4.70
2018-09-18T08:06:58.456Z,4.90
2018-09-18T08:09:27.816Z,4.60
2018-09-18T08:11:57.254Z,5.27
2018-09-18T08:14:26.651Z,4.73
2018-09-18T08:16:56.201Z,5.20
2018-09-18T08:19:25.772Z,4.43
2018-09-18T08:21:55.510Z,5.03
2018-09-18T08:24:25.100Z,4.00
2018-09-18T08:26:54.575Z,5.13
2018-09-18T08:29:24.008Z,4.60
2018-09-18T08:31:53.531Z,4.63
2018-09-18T08:34:23.074Z,4.10
2018-09-18T08:36:52.725Z,4.60
2018-09-18T08:39:22.214Z,4.30
2018-09-18T08:41:51.609Z,4.70
2018-09-18T08:44:21.065Z,4.63
2018-09-18T08:46:50.990Z,4.20
2018-09-18T08:49:20.471Z,4.47
2018-09-18T08:51:49.938Z,4.50
2018-09-18T08:54:19.439Z,4.40
2018-09-18T08:56:48.828Z,4.53
2018-09-18T08:59:18.258Z,4.50
2018-09-18T09:01:47.752Z,4.50
2018-09-18T09:04:17.170Z,4.20
2018-09-18T09:06:46.639Z,3.97
2018-09-18T09:09:17.077Z,4.00
2018-09-18T09:11:46.831Z,3.67
2018-09-18T09:14:16.331Z,3.10
2018-09-18T09:16:45.658Z,3.53
2018-09-18T09:19:15.071Z,4.00
2018-09-18T09:21:44.533Z,3.17
2018-09-18T09:24:14.926Z,3.43
2018-09-18T09:26:44.424Z,3.53
2018-09-18T09:29:13.974Z,2.73
2018-09-18T09:31:43.819Z,3.73
2018-09-18T09:34:13.252Z,3.13
2018-09-18T09:36:42.635Z,3.23
2018-09-18T09:39:12.956Z,3.30
2018-09-18T09:41:42.338Z,3.23
2018-09-18T09:44:11.868Z,3.10
2018-09-18T09:46:41.367Z,3.27
2018-09-18T09:49:10.853Z,3.57
2018-09-18T09:51:40.409Z,2.60
2018-09-18T09:54:10.203Z,3.03
2018-09-18T09:56:39.733Z,2.50
2018-09-18T09:59:09.540Z,3.13
2018-09-18T10:01:47.904Z,3.10
2018-09-18T10:04:17.707Z,2.97
2018-09-18T10:06:47.257Z,2.60
2018-09-18T10:09:17.069Z,2.83
2018-09-18T10:11:46.622Z,3.27
2018-09-18T10:14:16.180Z,3.10
2018-09-18T10:16:45.597Z,3.00
2018-09-18T10:19:15.037Z,2.77
2018-09-18T10:21:44.492Z,3.37
2018-09-18T10:24:13.988Z,3.30
2018-09-18T10:26:43.340Z,3.00
2018-09-18T10:29:12.834Z,2.70
2018-09-18T10:31:42.744Z,3.33
2018-09-18T10:34:12.144Z,3.17
2018-09-18T10:36:41.721Z,2.60
2018-09-18T10:39:12.119Z,3.50
2018-09-18T10:41:41.652Z,3.30
2018-09-18T10:44:11.112Z,3.00
2018-09-18T10:46:40.511Z,3.23
2018-09-18T10:49:09.918Z,2.70
2018-09-18T10:51:39.307Z,3.37
2018-09-18T10:54:08.820Z,2.43
2018-09-18T10:56:38.366Z,2.47
2018-09-18T10:59:10.644Z,2.90
2018-09-18T11:01:39.980Z,2.80
2018-09-18T11:04:09.744Z,3.17
2018-09-18T11:06:39.297Z,2.90
2018-09-18T11:09:10.877Z,3.40
2018-09-18T11:11:41.885Z,3.03
2018-09-18T11:14:12.625Z,3.00
2018-09-18T11:16:42.803Z,3.10
2018-09-18T11:19:12.425Z,3.03
2018-09-18T11:21:42.123Z,3.27
2018-09-18T11:24:11.669Z,3.10
2018-09-18T11:26:41.195Z,3.17
2018-09-18T11:29:10.640Z,2.70
2018-09-18T11:31:40.240Z,2.90
2018-09-18T11:34:09.635Z,2.90
2018-09-18T11:36:39.250Z,3.30
2018-09-18T11:39:08.707Z,3.57
2018-09-18T11:41:38.282Z,3.20
2018-09-18T11:44:07.756Z,3.27
2018-09-18T11:46:37.243Z,3.00
2018-09-18T11:49:06.657Z,2.80
2018-09-18T11:51:36.040Z,3.10
2018-09-18T11:54:05.938Z,3.37
2018-09-18T11:56:35.361Z,2.77
2018-09-18T11:59:04.956Z,3.40
2018-09-18T12:01:34.576Z,2.70
2018-09-18T12:04:04.101Z,2.50
2018-09-18T12:06:34.125Z,2.40
2018-09-18T12:09:03.582Z,2.60
2018-09-18T12:11:32.898Z,2.43
2018-09-18T12:14:02.347Z,2.70
2018-09-18T12:16:32.319Z,2.50
2018-09-18T12:19:01.816Z,3.03
2018-09-18T12:21:32.121Z,3.00
2018-09-18T12:24:01.530Z,2.30
2018-09-18T12:26:30.933Z,2.50
2018-09-18T12:29:00.339Z,2.47
2018-09-18T12:31:29.723Z,2.40
2018-09-18T12:33:59.142Z,2.87
2018-09-18T12:36:28.559Z,2.53
2018-09-18T12:38:58.139Z,2.17
2018-09-18T12:41:27.601Z,2.40
2018-09-18T12:43:57.019Z,2.20
2018-09-18T12:46:26.430Z,2.20
2018-09-18T12:48:55.997Z,2.30
2018-09-18T12:51:25.398Z,2.47
2018-09-18T12:53:54.974Z,2.13
2018-09-18T12:56:24.754Z,1.90
2018-09-18T12:58:54.634Z,2.10
2018-09-18T13:01:24.115Z,2.13
2018-09-18T13:03:53.674Z,2.40
2018-09-18T13:06:23.148Z,2.30
2018-09-18T13:08:52.602Z,2.37
2018-09-18T13:11:22.495Z,2.27
2018-09-18T13:13:52.119Z,2.30
2018-09-18T13:16:21.829Z,2.13
2018-09-18T13:18:51.390Z,2.50
2018-09-18T13:21:20.832Z,2.50
2018-09-18T13:23:50.597Z,2.60
2018-09-18T13:26:20.203Z,2.63
2018-09-18T13:28:49.648Z,2.30
2018-09-18T13:31:19.101Z,2.87
2018-09-18T13:33:48.555Z,2.80
2018-09-18T13:36:17.997Z,2.83
2018-09-18T13:38:47.471Z,2.60
2018-09-18T13:41:17.056Z,2.40
2018-09-18T13:43:46.383Z,2.63
2018-09-18T13:46:16.398Z,2.33
2018-09-18T13:48:45.740Z,2.60
2018-09-18T13:51:15.137Z,2.30
2018-09-18T13:53:44.658Z,2.50
2018-09-18T13:56:14.244Z,2.53
2018-09-18T13:58:43.691Z,2.37
2018-09-18T14:01:13.239Z,2.00
2018-09-18T14:03:42.531Z,2.70
2018-09-18T14:06:11.930Z,2.20
2018-09-18T14:08:42.025Z,2.50
2018-09-18T14:11:11.353Z,2.37
2018-09-18T14:13:40.822Z,2.83
2018-09-18T14:16:10.670Z,2.43
2018-09-18T14:18:40.208Z,2.43
2018-09-18T14:21:10.059Z,2.63
2018-09-18T14:23:39.531Z,2.60
2018-09-18T14:26:09.224Z,2.40
2018-09-18T14:28:38.752Z,3.03
2018-09-18T14:31:08.691Z,3.43
2018-09-18T14:33:38.093Z,3.07
2018-09-18T14:36:07.625Z,2.93
2018-09-18T14:38:37.110Z,2.87
2018-09-18T14:41:06.647Z,2.87
2018-09-18T14:43:36.175Z,3.67
2018-09-18T14:46:05.534Z,3.33
2018-09-18T14:48:35.008Z,3.50
2018-09-18T14:51:04.539Z,3.67
2018-09-18T14:53:34.666Z,3.87
2018-09-18T14:56:04.316Z,3.17
2018-09-18T14:58:33.796Z,3.73
2018-09-18T15:01:03.304Z,3.70
2018-09-18T15:03:32.721Z,3.53
2018-09-18T15:06:02.032Z,4.27
2018-09-18T15:08:31.445Z,4.00
2018-09-18T15:11:00.797Z,3.57
2018-09-18T15:13:30.199Z,3.50
2018-09-18T15:15:59.869Z,3.80
2018-09-18T15:18:29.352Z,3.57
2018-09-18T15:20:59.309Z,3.43
2018-09-18T15:23:28.832Z,3.90
2018-09-18T15:25:58.271Z,4.13
2018-09-18T15:28:27.697Z,3.90
2018-09-18T15:30:57.079Z,4.40
2018-09-18T15:33:26.486Z,4.30
2018-09-18T15:35:55.943Z,5.43
2018-09-18T15:38:26.034Z,4.07
2018-09-18T15:40:55.499Z,4.10
2018-09-18T15:43:24.900Z,4.13
2018-09-18T15:45:55.488Z,4.40
2018-09-18T15:48:25.038Z,4.53
2018-09-18T15:50:54.616Z,3.90
2018-09-18T15:53:24.169Z,4.10
2018-09-18T15:55:53.594Z,4.17
2018-09-18T15:58:23.169Z,4.30
2018-09-18T16:00:53.021Z,4.53
2018-09-18T16:03:22.453Z,4.73
2018-09-18T16:05:52.058Z,4.37
2018-09-18T16:08:21.884Z,4.80
2018-09-18T16:10:51.476Z,4.47
2018-09-18T16:13:20.899Z,4.50
2018-09-18T16:15:50.403Z,5.17
2018-09-18T16:18:19.863Z,4.57
2018-09-18T16:20:49.350Z,4.83
2018-09-18T16:23:19.145Z,4.60
2018-09-18T16:25:48.631Z,4.90
2018-09-18T16:28:18.257Z,4.87
2018-09-18T16:30:47.832Z,5.40
2018-09-18T16:33:17.402Z,5.00
2018-09-18T16:35:47.476Z,4.77
2018-09-18T16:38:16.904Z,5.30
2018-09-18T16:40:46.330Z,5.53
2018-09-18T16:43:15.755Z,5.20
2018-09-18T16:45:45.592Z,4.43
2018-09-18T16:48:15.027Z,5.50
2018-09-18T16:50:44.502Z,4.30
2018-09-18T16:53:14.760Z,5.27
2018-09-18T16:55:44.278Z,5.67
2018-09-18T16:58:13.835Z,5.47
2018-09-18T17:00:43.400Z,5.80
2018-09-18T17:03:12.812Z,5.37
2018-09-18T17:05:42.259Z,5.00
2018-09-18T17:08:12.351Z,5.37
2018-09-18T17:10:41.976Z,5.70
2018-09-18T17:13:12.173Z,7.03
2018-09-18T17:15:41.537Z,6.50
2018-09-18T17:18:11.044Z,5.50
2018-09-18T17:20:40.710Z,6.17
2018-09-18T17:23:10.160Z,6.60
2018-09-18T17:25:39.753Z,6.33
2018-09-18T17:28:09.212Z,5.67
2018-09-18T17:30:39.104Z,5.63
2018-09-18T17:33:09.429Z,5.83
2018-09-18T17:35:39.039Z,5.60
2018-09-18T17:38:08.387Z,6.37
2018-09-18T17:40:37.818Z,7.57
2018-09-18T17:43:07.483Z,7.43
2018-09-18T17:45:36.995Z,6.53
2018-09-18T17:48:06.843Z,6.17
2018-09-18T17:50:36.315Z,6.20
2018-09-18T17:53:06.510Z,6.73
2018-09-18T17:55:35.962Z,7.20
2018-09-18T17:58:05.449Z,6.93
2018-09-18T18:00:35.339Z,7.97
2018-09-18T18:03:04.848Z,8.30
2018-09-18T18:05:34.345Z,7.80
2018-09-18T18:08:03.782Z,7.83
2018-09-18T18:10:33.431Z,8.10
2018-09-18T18:13:03.524Z,6.83
2018-09-18T18:15:33.503Z,7.80
2018-09-18T18:18:02.914Z,9.33
2018-09-18T18:20:32.751Z,9.03
2018-09-18T18:23:02.127Z,9.57
2018-09-18T18:25:31.585Z,9.53
2018-09-18T18:28:01.020Z,9.60
2018-09-18T18:30:30.477Z,9.70
2018-09-18T18:32:59.947Z,9.20
2018-09-18T18:35:29.470Z,11.00
2018-09-18T18:37:59.195Z,12.40
2018-09-18T18:40:28.980Z,11.23
2018-09-18T18:42:58.412Z,12.40
2018-09-18T18:45:28.261Z,12.60
2018-09-18T18:47:57.783Z,12.40
2018-09-18T18:50:27.406Z,11.90
2018-09-18T18:52:57.014Z,13.23
2018-09-18T18:55:26.807Z,11.53
2018-09-18T18:57:56.454Z,12.77
2018-09-18T19:00:26.646Z,11.70
2018-09-18T19:02:56.500Z,13.67
2018-09-18T19:05:26.077Z,9.80
2018-09-18T19:07:56.179Z,8.40
2018-09-18T19:10:25.628Z,8.43
2018-09-18T19:12:55.032Z,9.27
2018-09-18T19:15:24.846Z,11.20
2018-09-18T19:17:54.281Z,12.33
2018-09-18T19:20:24.602Z,11.50
2018-09-18T19:22:55.234Z,10.97
2018-09-18T19:25:24.760Z,11.10
2018-09-18T19:27:55.288Z,11.97
2018-09-18T19:30:27.340Z,11.37
2018-09-18T19:32:59.457Z,11.63
2018-09-18T19:35:29.058Z,10.60
2018-09-18T19:37:58.585Z,10.60
2018-09-18T19:40:28.575Z,10.47
2018-09-18T19:42:59.426Z,10.90
2018-09-18T19:45:30.817Z,9.60
2018-09-18T19:48:00.353Z,10.13
2018-09-18T19:50:30.423Z,10.30
2018-09-18T19:53:00.411Z,10.00
2018-09-18T19:55:29.844Z,9.27
2018-09-18T19:57:59.929Z,9.47
2018-09-18T20:00:29.988Z,10.53
2018-09-18T20:02:59.866Z,10.87
2018-09-18T20:05:30.350Z,8.40
2018-09-18T20:07:59.786Z,10.87
2018-09-18T20:10:29.399Z,9.93
2018-09-18T20:12:58.911Z,10.53
2018-09-18T20:15:29.093Z,10.20
2018-09-18T20:18:03.221Z,9.60
2018-09-18T20:20:34.020Z,10.00
2018-09-18T20:23:03.673Z,10.37
2018-09-18T20:25:33.435Z,9.73
2018-09-18T20:28:02.930Z,8.90
2018-09-18T20:30:32.597Z,9.93
2018-09-18T20:33:02.235Z,9.50
2018-09-18T20:35:32.017Z,9.83
2018-09-18T20:38:01.677Z,9.87
2018-09-18T20:40:31.333Z,8.90
2018-09-18T20:43:02.356Z,9.00
2018-09-18T20:45:31.960Z,10.13
2018-09-18T20:48:01.715Z,10.10
2018-09-18T20:50:31.298Z,10.20
2018-09-18T20:53:00.715Z,9.30
2018-09-18T20:55:30.248Z,9.43
2018-09-18T20:57:59.932Z,10.10
2018-09-18T21:00:29.547Z,9.83
2018-09-18T21:02:59.317Z,10.20
2018-09-18T21:05:29.062Z,9.03
2018-09-18T21:07:58.966Z,9.90
2018-09-18T21:10:28.934Z,9.60
2018-09-18T21:12:58.474Z,10.23
2018-09-18T21:15:29.274Z,10.23
2018-09-18T21:17:58.899Z,10.00
2018-09-18T21:20:29.284Z,9.70
2018-09-18T21:22:58.933Z,10.30
2018-09-18T21:25:39.545Z,22.70
2018-09-18T21:28:09.177Z,9.87
2018-09-18T21:30:38.854Z,17.83
2018-09-18T21:33:08.437Z,17.10
2018-09-18T21:35:37.796Z,11.10
2018-09-18T21:38:07.415Z,9.90
2018-09-18T21:40:37.065Z,9.50
2018-09-18T21:43:06.773Z,9.53
2018-09-18T21:45:36.387Z,11.17
2018-09-18T21:48:05.890Z,10.27
2018-09-18T21:50:38.570Z,10.17
2018-09-18T21:53:12.037Z,10.63
2018-09-18T21:55:42.219Z,11.00
2018-09-18T21:58:11.643Z,10.27
2018-09-18T22:00:41.670Z,10.23
2018-09-18T22:03:11.430Z,10.03
2018-09-18T22:05:41.076Z,10.10
2018-09-18T22:08:10.540Z,10.93
2018-09-18T22:10:41.594Z,9.90
2018-09-18T22:13:11.110Z,10.67
2018-09-18T22:15:40.805Z,11.90
2018-09-18T22:18:10.280Z,10.67
2018-09-18T22:20:39.990Z,11.20
2018-09-18T22:23:10.292Z,10.10
2018-09-18T22:25:39.961Z,11.53
2018-09-18T22:28:09.701Z,11.60
2018-09-18T22:30:39.111Z,10.30
2018-09-18T22:33:08.538Z,10.30
2018-09-18T22:35:37.923Z,10.13
2018-09-18T22:38:07.734Z,10.37
2018-09-18T22:40:37.130Z,10.13
2018-09-18T22:43:06.773Z,11.67
2018-09-18T22:45:36.552Z,10.73
2018-09-18T22:48:06.091Z,10.70
2018-09-18T22:50:35.524Z,10.60
2018-09-18T22:53:04.933Z,12.03
2018-09-18T22:55:34.337Z,11.60
2018-09-18T22:58:03.735Z,11.40
2018-09-18T23:00:33.142Z,11.00
2018-09-18T23:03:02.744Z,11.30
2018-09-18T23:05:32.534Z,10.70
2018-09-18T23:08:02.166Z,11.97
2018-09-18T23:10:31.645Z,11.40
2018-09-18T23:13:01.066Z,11.33
2018-09-18T23:15:30.571Z,11.60
2018-09-18T23:18:00.133Z,11.60
2018-09-18T23:20:36.033Z,9.73
2018-09-18T23:23:05.415Z,10.40
2018-09-18T23:25:35.116Z,10.33
2018-09-18T23:28:04.894Z,11.47
2018-09-18T23:30:34.315Z,10.73
2018-09-18T23:33:03.842Z,10.53
2018-09-18T23:35:33.302Z,11.33
2018-09-18T23:38:03.191Z,11.20
2018-09-18T23:40:32.722Z,11.70
2018-09-18T23:43:02.108Z,10.50
2018-09-18T23:45:31.436Z,10.30
2018-09-18T23:48:00.861Z,11.47
2018-09-18T23:50:30.607Z,10.00
2018-09-18T23:53:00.012Z,11.00
2018-09-18T23:55:29.881Z,11.23
2018-09-18T23:57:59.347Z,10.20
